sensor_id;sensor_type;location;lat;lon;timestamp;temperature;humidity
7366;DHT22;3723;52.220;8.792;2022-07-09T00:00:30;14.70;99.90
7366;DHT22;3723;52.220;8.792;2022-07-09T00:02:59;14.70;99.90
7366;DHT22;3723;52.220;8.792;2022-07-09T00:05:26;14.70;99.90
7366;DHT22;3723;52.220;8.792;2022-07-09T00:07:53;14.70;99.90
7366;DHT22;3723;52.220;8.792;2022-07-09T00:10:20;14.60;99.90
7366;DHT22;3723;52.220;8.792;2022-07-09T00:12:47;14.50;99.90
7366;DHT22;3723;52.220;8.792;2022-07-09T00:15:14;14.50;99.90
7366;DHT22;3723;52.220;8.792;2022-07-09T00:17:40;14.30;99.90
7366;DHT22;3723;52.220;8.792;2022-07-09T00:20:10;14.30;99.90
7366;DHT22;3723;52.220;8.792;2022-07-09T00:22:37;14.30;99.90
7366;DHT22;3723;52.220;8.792;2022-07-09T00:25:05;14.30;99.90
7366;DHT22;3723;52.220;8.792;2022-07-09T00:27:32;14.30;99.90
7366;DHT22;3723;52.220;8.792;2022-07-09T00:29:58;14.30;99.90
7366;DHT22;3723;52.220;8.792;2022-07-09T00:32:25;14.30;99.90
7366;DHT22;3723;52.220;8.792;2022-07-09T00:34:52;14.40;99.90
7366;DHT22;3723;52.220;8.792;2022-07-09T00:37:20;14.40;99.90
7366;DHT22;3723;52.220;8.792;2022-07-09T00:39:47;14.50;99.90
7366;DHT22;3723;52.220;8.792;2022-07-09T00:42:14;14.50;99.90
7366;DHT22;3723;52.220;8.792;2022-07-09T00:44:41;14.50;99.90
7366;DHT22;3723;52.220;8.792;2022-07-09T00:47:08;14.40;99.90
7366;DHT22;3723;52.220;8.792;2022-07-09T00:49:38;14.40;99.90
7366;DHT22;3723;52.220;8.792;2022-07-09T00:52:07;14.40;99.90
7366;DHT22;3723;52.220;8.792;2022-07-09T00:54:38;14.40;99.90
7366;DHT22;3723;52.220;8.792;2022-07-09T00:57:07;14.50;99.90
7366;DHT22;3723;52.220;8.792;2022-07-09T00:59:35;14.60;99.90
7366;DHT22;3723;52.220;8.792;2022-07-09T01:02:03;14.70;99.90
7366;DHT22;3723;52.220;8.792;2022-07-09T01:04:30;14.70;99.90
7366;DHT22;3723;52.220;8.792;2022-07-09T01:06:57;14.80;99.90
7366;DHT22;3723;52.220;8.792;2022-07-09T01:09:24;14.80;99.90
7366;DHT22;3723;52.220;8.792;2022-07-09T01:11:53;14.80;99.90
7366;DHT22;3723;52.220;8.792;2022-07-09T01:14:20;14.90;99.90
7366;DHT22;3723;52.220;8.792;2022-07-09T01:16:47;14.90;99.90
7366;DHT22;3723;52.220;8.792;2022-07-09T01:19:14;15.00;99.90
7366;DHT22;3723;52.220;8.792;2022-07-09T01:21:42;15.00;99.90
7366;DHT22;3723;52.220;8.792;2022-07-09T01:24:09;15.00;99.90
7366;DHT22;3723;52.220;8.792;2022-07-09T01:26:36;15.00;99.90
7366;DHT22;3723;52.220;8.792;2022-07-09T01:29:02;15.10;99.90
7366;DHT22;3723;52.220;8.792;2022-07-09T01:31:29;15.10;99.90
7366;DHT22;3723;52.220;8.792;2022-07-09T01:33:56;15.20;99.90
7366;DHT22;3723;52.220;8.792;2022-07-09T01:36:23;15.30;99.90
7366;DHT22;3723;52.220;8.792;2022-07-09T01:38:51;15.30;99.90
7366;DHT22;3723;52.220;8.792;2022-07-09T01:41:18;15.30;99.90
7366;DHT22;3723;52.220;8.792;2022-07-09T01:43:44;15.20;99.90
7366;DHT22;3723;52.220;8.792;2022-07-09T01:46:11;15.30;99.90
7366;DHT22;3723;52.220;8.792;2022-07-09T01:48:38;15.20;99.90
7366;DHT22;3723;52.220;8.792;2022-07-09T01:51:07;15.20;99.90
7366;DHT22;3723;52.220;8.792;2022-07-09T01:53:34;15.30;99.90
7366;DHT22;3723;52.220;8.792;2022-07-09T01:56:05;15.30;99.90
7366;DHT22;3723;52.220;8.792;2022-07-09T01:58:32;15.30;99.90
7366;DHT22;3723;52.220;8.792;2022-07-09T02:00:59;15.30;99.90
7366;DHT22;3723;52.220;8.792;2022-07-09T02:03:26;15.30;99.90
7366;DHT22;3723;52.220;8.792;2022-07-09T02:05:53;15.30;99.90
7366;DHT22;3723;52.220;8.792;2022-07-09T02:08:20;15.30;99.90
7366;DHT22;3723;52.220;8.792;2022-07-09T02:10:46;15.30;99.90
7366;DHT22;3723;52.220;8.792;2022-07-09T02:13:15;15.30;99.90
7366;DHT22;3723;52.220;8.792;2022-07-09T02:15:41;15.30;99.90
7366;DHT22;3723;52.220;8.792;2022-07-09T02:18:08;15.40;99.90
7366;DHT22;3723;52.220;8.792;2022-07-09T02:20:35;15.30;99.90
7366;DHT22;3723;52.220;8.792;2022-07-09T02:23:02;15.40;99.90
7366;DHT22;3723;52.220;8.792;2022-07-09T02:25:28;15.30;99.90
7366;DHT22;3723;52.220;8.792;2022-07-09T02:27:55;15.30;99.90
7366;DHT22;3723;52.220;8.792;2022-07-09T02:30:23;15.30;99.90
7366;DHT22;3723;52.220;8.792;2022-07-09T02:32:50;15.30;99.90
7366;DHT22;3723;52.220;8.792;2022-07-09T02:35:17;15.30;99.90
7366;DHT22;3723;52.220;8.792;2022-07-09T02:37:44;15.30;99.90
7366;DHT22;3723;52.220;8.792;2022-07-09T02:40:11;15.30;99.90
7366;DHT22;3723;52.220;8.792;2022-07-09T02:42:40;15.20;99.90
7366;DHT22;3723;52.220;8.792;2022-07-09T02:45:07;15.20;99.90
7366;DHT22;3723;52.220;8.792;2022-07-09T02:47:36;15.20;99.90
7366;DHT22;3723;52.220;8.792;2022-07-09T02:50:03;15.20;99.90
7366;DHT22;3723;52.220;8.792;2022-07-09T02:52:30;15.20;99.90
7366;DHT22;3723;52.220;8.792;2022-07-09T02:54:57;15.20;99.90
7366;DHT22;3723;52.220;8.792;2022-07-09T02:57:24;15.20;99.90
7366;DHT22;3723;52.220;8.792;2022-07-09T02:59:51;15.20;99.90
7366;DHT22;3723;52.220;8.792;2022-07-09T03:02:18;15.20;99.90
7366;DHT22;3723;52.220;8.792;2022-07-09T03:04:46;15.20;99.90
7366;DHT22;3723;52.220;8.792;2022-07-09T03:07:13;15.20;99.90
7366;DHT22;3723;52.220;8.792;2022-07-09T03:09:40;15.30;99.90
7366;DHT22;3723;52.220;8.792;2022-07-09T03:12:07;15.30;99.90
7366;DHT22;3723;52.220;8.792;2022-07-09T03:14:34;15.30;99.90
7366;DHT22;3723;52.220;8.792;2022-07-09T03:17:01;15.30;99.90
7366;DHT22;3723;52.220;8.792;2022-07-09T03:19:28;15.30;99.90
7366;DHT22;3723;52.220;8.792;2022-07-09T03:21:56;15.30;99.90
7366;DHT22;3723;52.220;8.792;2022-07-09T03:24:23;15.30;99.90
7366;DHT22;3723;52.220;8.792;2022-07-09T03:26:50;15.30;99.90
7366;DHT22;3723;52.220;8.792;2022-07-09T03:29:17;15.40;99.90
7366;DHT22;3723;52.220;8.792;2022-07-09T03:31:44;15.40;99.90
7366;DHT22;3723;52.220;8.792;2022-07-09T03:34:11;15.40;99.90
7366;DHT22;3723;52.220;8.792;2022-07-09T03:36:38;15.40;99.90
7366;DHT22;3723;52.220;8.792;2022-07-09T03:39:06;15.40;99.90
7366;DHT22;3723;52.220;8.792;2022-07-09T03:41:32;15.50;99.90
7366;DHT22;3723;52.220;8.792;2022-07-09T03:43:59;15.40;99.90
7366;DHT22;3723;52.220;8.792;2022-07-09T03:46:26;15.40;99.90
7366;DHT22;3723;52.220;8.792;2022-07-09T03:48:54;15.40;99.90
7366;DHT22;3723;52.220;8.792;2022-07-09T03:51:21;15.40;99.90
7366;DHT22;3723;52.220;8.792;2022-07-09T03:53:48;15.40;99.90
7366;DHT22;3723;52.220;8.792;2022-07-09T03:56:16;15.40;99.90
7366;DHT22;3723;52.220;8.792;2022-07-09T03:58:45;15.40;99.90
7366;DHT22;3723;52.220;8.792;2022-07-09T04:01:12;15.40;99.90
7366;DHT22;3723;52.220;8.792;2022-07-09T04:03:39;15.40;99.90
7366;DHT22;3723;52.220;8.792;2022-07-09T04:06:06;15.40;99.90
7366;DHT22;3723;52.220;8.792;2022-07-09T04:08:33;15.40;99.90
7366;DHT22;3723;52.220;8.792;2022-07-09T04:11:00;15.50;99.90
7366;DHT22;3723;52.220;8.792;2022-07-09T04:13:28;15.50;99.90
7366;DHT22;3723;52.220;8.792;2022-07-09T04:15:55;15.60;99.90
7366;DHT22;3723;52.220;8.792;2022-07-09T04:18:22;15.60;99.90
7366;DHT22;3723;52.220;8.792;2022-07-09T04:20:48;15.60;99.90
7366;DHT22;3723;52.220;8.792;2022-07-09T04:23:16;15.60;99.90
7366;DHT22;3723;52.220;8.792;2022-07-09T04:25:43;15.60;99.90
7366;DHT22;3723;52.220;8.792;2022-07-09T04:28:11;15.60;99.90
7366;DHT22;3723;52.220;8.792;2022-07-09T04:30:39;15.70;99.90
7366;DHT22;3723;52.220;8.792;2022-07-09T04:33:06;15.80;99.90
7366;DHT22;3723;52.220;8.792;2022-07-09T04:35:32;15.70;99.90
7366;DHT22;3723;52.220;8.792;2022-07-09T04:38:01;15.80;99.90
7366;DHT22;3723;52.220;8.792;2022-07-09T04:40:28;15.80;99.90
7366;DHT22;3723;52.220;8.792;2022-07-09T04:42:54;15.80;99.90
7366;DHT22;3723;52.220;8.792;2022-07-09T04:45:21;15.90;99.90
7366;DHT22;3723;52.220;8.792;2022-07-09T04:47:49;15.90;99.90
7366;DHT22;3723;52.220;8.792;2022-07-09T04:50:16;15.90;99.90
7366;DHT22;3723;52.220;8.792;2022-07-09T04:52:43;16.00;99.90
7366;DHT22;3723;52.220;8.792;2022-07-09T04:55:10;16.00;99.90
7366;DHT22;3723;52.220;8.792;2022-07-09T04:57:37;16.10;99.90
7366;DHT22;3723;52.220;8.792;2022-07-09T05:00:05;16.10;99.90
7366;DHT22;3723;52.220;8.792;2022-07-09T05:02:32;16.20;99.90
7366;DHT22;3723;52.220;8.792;2022-07-09T05:05:00;16.30;99.90
7366;DHT22;3723;52.220;8.792;2022-07-09T05:07:29;16.20;99.90
7366;DHT22;3723;52.220;8.792;2022-07-09T05:09:56;16.30;99.90
7366;DHT22;3723;52.220;8.792;2022-07-09T05:12:23;16.40;99.90
7366;DHT22;3723;52.220;8.792;2022-07-09T05:14:50;16.50;99.90
7366;DHT22;3723;52.220;8.792;2022-07-09T05:17:17;16.50;99.90
7366;DHT22;3723;52.220;8.792;2022-07-09T05:19:44;16.60;99.90
7366;DHT22;3723;52.220;8.792;2022-07-09T05:22:12;16.70;99.90
7366;DHT22;3723;52.220;8.792;2022-07-09T05:24:39;16.70;99.90
7366;DHT22;3723;52.220;8.792;2022-07-09T05:27:07;16.70;99.90
7366;DHT22;3723;52.220;8.792;2022-07-09T05:29:34;16.80;99.90
7366;DHT22;3723;52.220;8.792;2022-07-09T05:32:01;16.80;99.90
7366;DHT22;3723;52.220;8.792;2022-07-09T05:34:28;16.90;99.90
7366;DHT22;3723;52.220;8.792;2022-07-09T05:36:55;17.00;99.90
7366;DHT22;3723;52.220;8.792;2022-07-09T05:39:23;17.00;99.90
7366;DHT22;3723;52.220;8.792;2022-07-09T05:41:50;17.10;99.90
7366;DHT22;3723;52.220;8.792;2022-07-09T05:44:17;17.20;99.90
7366;DHT22;3723;52.220;8.792;2022-07-09T05:46:44;17.40;99.90
7366;DHT22;3723;52.220;8.792;2022-07-09T05:49:11;17.40;99.90
7366;DHT22;3723;52.220;8.792;2022-07-09T05:51:37;17.50;99.90
7366;DHT22;3723;52.220;8.792;2022-07-09T05:54:05;17.50;99.90
7366;DHT22;3723;52.220;8.792;2022-07-09T05:56:33;17.60;99.90
7366;DHT22;3723;52.220;8.792;2022-07-09T05:59:02;17.70;99.90
7366;DHT22;3723;52.220;8.792;2022-07-09T06:01:29;17.80;99.90
7366;DHT22;3723;52.220;8.792;2022-07-09T06:03:56;17.90;99.90
7366;DHT22;3723;52.220;8.792;2022-07-09T06:06:22;18.10;99.90
7366;DHT22;3723;52.220;8.792;2022-07-09T06:08:49;18.20;99.90
7366;DHT22;3723;52.220;8.792;2022-07-09T06:11:17;18.20;99.90
7366;DHT22;3723;52.220;8.792;2022-07-09T06:13:45;18.30;99.90
7366;DHT22;3723;52.220;8.792;2022-07-09T06:16:12;18.30;99.90
7366;DHT22;3723;52.220;8.792;2022-07-09T06:18:39;18.50;99.90
7366;DHT22;3723;52.220;8.792;2022-07-09T06:21:06;18.70;99.90
7366;DHT22;3723;52.220;8.792;2022-07-09T06:23:33;18.90;99.90
7366;DHT22;3723;52.220;8.792;2022-07-09T06:26:00;19.00;99.90
7366;DHT22;3723;52.220;8.792;2022-07-09T06:28:27;19.20;99.90
7366;DHT22;3723;52.220;8.792;2022-07-09T06:30:55;19.30;99.90
7366;DHT22;3723;52.220;8.792;2022-07-09T06:33:22;19.60;99.90
7366;DHT22;3723;52.220;8.792;2022-07-09T06:35:49;19.80;99.90
7366;DHT22;3723;52.220;8.792;2022-07-09T06:38:15;20.00;99.90
7366;DHT22;3723;52.220;8.792;2022-07-09T06:40:42;20.30;99.90
7366;DHT22;3723;52.220;8.792;2022-07-09T06:43:09;20.80;99.90
7366;DHT22;3723;52.220;8.792;2022-07-09T06:45:37;21.40;99.90
7366;DHT22;3723;52.220;8.792;2022-07-09T06:48:06;21.70;99.90
7366;DHT22;3723;52.220;8.792;2022-07-09T06:50:32;22.00;99.90
7366;DHT22;3723;52.220;8.792;2022-07-09T06:52:59;22.40;99.90
7366;DHT22;3723;52.220;8.792;2022-07-09T06:55:26;23.10;99.90
7366;DHT22;3723;52.220;8.792;2022-07-09T06:57:53;23.70;99.90
7366;DHT22;3723;52.220;8.792;2022-07-09T07:00:23;24.60;99.90
7366;DHT22;3723;52.220;8.792;2022-07-09T07:02:50;24.80;99.90
7366;DHT22;3723;52.220;8.792;2022-07-09T07:05:18;24.70;99.90
7366;DHT22;3723;52.220;8.792;2022-07-09T07:07:45;24.50;99.90
7366;DHT22;3723;52.220;8.792;2022-07-09T07:10:12;24.60;99.90
7366;DHT22;3723;52.220;8.792;2022-07-09T07:12:39;24.50;99.90
7366;DHT22;3723;52.220;8.792;2022-07-09T07:15:08;24.70;99.90
7366;DHT22;3723;52.220;8.792;2022-07-09T07:17:35;24.70;99.90
7366;DHT22;3723;52.220;8.792;2022-07-09T07:20:03;25.30;99.90
7366;DHT22;3723;52.220;8.792;2022-07-09T07:22:31;26.20;99.90
7366;DHT22;3723;52.220;8.792;2022-07-09T07:24:58;26.50;99.90
7366;DHT22;3723;52.220;8.792;2022-07-09T07:27:25;26.60;99.90
7366;DHT22;3723;52.220;8.792;2022-07-09T07:29:51;26.20;99.90
7366;DHT22;3723;52.220;8.792;2022-07-09T07:32:18;25.60;99.90
7366;DHT22;3723;52.220;8.792;2022-07-09T07:34:45;25.10;99.90
7366;DHT22;3723;52.220;8.792;2022-07-09T07:37:12;24.80;99.90
7366;DHT22;3723;52.220;8.792;2022-07-09T07:39:40;24.80;99.90
7366;DHT22;3723;52.220;8.792;2022-07-09T07:42:07;24.90;99.90
7366;DHT22;3723;52.220;8.792;2022-07-09T07:44:33;25.10;99.90
7366;DHT22;3723;52.220;8.792;2022-07-09T07:47:00;24.70;99.90
7366;DHT22;3723;52.220;8.792;2022-07-09T07:49:27;24.10;99.90
7366;DHT22;3723;52.220;8.792;2022-07-09T07:51:54;23.70;99.90
7366;DHT22;3723;52.220;8.792;2022-07-09T07:54:21;23.20;99.90
7366;DHT22;3723;52.220;8.792;2022-07-09T07:56:49;22.90;99.90
7366;DHT22;3723;52.220;8.792;2022-07-09T07:59:17;22.60;99.90
7366;DHT22;3723;52.220;8.792;2022-07-09T08:01:43;22.70;99.90
7366;DHT22;3723;52.220;8.792;2022-07-09T08:04:10;23.00;99.90
7366;DHT22;3723;52.220;8.792;2022-07-09T08:06:37;24.10;99.90
7366;DHT22;3723;52.220;8.792;2022-07-09T08:09:04;25.20;99.90
7366;DHT22;3723;52.220;8.792;2022-07-09T08:11:30;25.60;99.90
7366;DHT22;3723;52.220;8.792;2022-07-09T08:13:59;25.40;99.90
7366;DHT22;3723;52.220;8.792;2022-07-09T08:16:26;25.00;99.90
7366;DHT22;3723;52.220;8.792;2022-07-09T08:18:53;24.60;99.90
7366;DHT22;3723;52.220;8.792;2022-07-09T08:21:19;24.50;99.90
7366;DHT22;3723;52.220;8.792;2022-07-09T08:23:46;24.20;99.90
7366;DHT22;3723;52.220;8.792;2022-07-09T08:26:24;23.90;99.90
7366;DHT22;3723;52.220;8.792;2022-07-09T08:28:51;23.40;99.90
7366;DHT22;3723;52.220;8.792;2022-07-09T08:31:21;23.30;99.90
7366;DHT22;3723;52.220;8.792;2022-07-09T08:33:48;23.40;99.90
7366;DHT22;3723;52.220;8.792;2022-07-09T08:36:16;23.60;99.90
7366;DHT22;3723;52.220;8.792;2022-07-09T08:38:43;23.80;99.90
7366;DHT22;3723;52.220;8.792;2022-07-09T08:41:10;24.10;99.90
7366;DHT22;3723;52.220;8.792;2022-07-09T08:43:38;23.90;99.90
7366;DHT22;3723;52.220;8.792;2022-07-09T08:46:06;23.70;99.90
7366;DHT22;3723;52.220;8.792;2022-07-09T08:48:35;23.30;99.90
7366;DHT22;3723;52.220;8.792;2022-07-09T08:51:03;23.00;99.90
7366;DHT22;3723;52.220;8.792;2022-07-09T08:53:30;22.90;99.90
7366;DHT22;3723;52.220;8.792;2022-07-09T08:55:57;22.90;99.90
7366;DHT22;3723;52.220;8.792;2022-07-09T08:58:24;22.90;99.90
7366;DHT22;3723;52.220;8.792;2022-07-09T09:00:51;23.00;99.90
7366;DHT22;3723;52.220;8.792;2022-07-09T09:03:18;23.00;99.90
7366;DHT22;3723;52.220;8.792;2022-07-09T09:06:00;23.00;99.90
7366;DHT22;3723;52.220;8.792;2022-07-09T09:08:27;22.90;99.90
7366;DHT22;3723;52.220;8.792;2022-07-09T09:10:54;22.80;99.90
7366;DHT22;3723;52.220;8.792;2022-07-09T09:13:21;22.70;99.90
7366;DHT22;3723;52.220;8.792;2022-07-09T09:15:48;22.60;99.90
7366;DHT22;3723;52.220;8.792;2022-07-09T09:18:15;22.80;99.90
7366;DHT22;3723;52.220;8.792;2022-07-09T09:20:44;22.90;99.90
7366;DHT22;3723;52.220;8.792;2022-07-09T09:23:17;22.80;99.90
7366;DHT22;3723;52.220;8.792;2022-07-09T09:25:44;22.60;99.90
7366;DHT22;3723;52.220;8.792;2022-07-09T09:28:12;22.50;99.90
7366;DHT22;3723;52.220;8.792;2022-07-09T09:30:42;22.40;99.90
7366;DHT22;3723;52.220;8.792;2022-07-09T09:33:13;22.40;99.90
7366;DHT22;3723;52.220;8.792;2022-07-09T09:35:42;22.80;99.90
7366;DHT22;3723;52.220;8.792;2022-07-09T09:38:10;23.30;99.90
7366;DHT22;3723;52.220;8.792;2022-07-09T09:40:38;23.60;99.90
7366;DHT22;3723;52.220;8.792;2022-07-09T09:43:11;23.60;99.90
7366;DHT22;3723;52.220;8.792;2022-07-09T09:45:38;23.30;99.90
7366;DHT22;3723;52.220;8.792;2022-07-09T09:48:05;23.20;99.90
7366;DHT22;3723;52.220;8.792;2022-07-09T09:50:33;23.10;99.90
7366;DHT22;3723;52.220;8.792;2022-07-09T09:53:01;23.00;99.90
7366;DHT22;3723;52.220;8.792;2022-07-09T09:55:28;23.00;99.90
7366;DHT22;3723;52.220;8.792;2022-07-09T09:57:58;23.20;99.90
7366;DHT22;3723;52.220;8.792;2022-07-09T10:00:27;23.60;99.90
7366;DHT22;3723;52.220;8.792;2022-07-09T10:02:54;24.10;99.90
7366;DHT22;3723;52.220;8.792;2022-07-09T10:05:24;24.30;99.90
7366;DHT22;3723;52.220;8.792;2022-07-09T10:07:54;24.70;99.90
7366;DHT22;3723;52.220;8.792;2022-07-09T10:10:21;25.30;99.90
7366;DHT22;3723;52.220;8.792;2022-07-09T10:12:49;25.40;99.90
7366;DHT22;3723;52.220;8.792;2022-07-09T10:15:21;25.20;99.90
7366;DHT22;3723;52.220;8.792;2022-07-09T10:17:49;24.90;99.90
7366;DHT22;3723;52.220;8.792;2022-07-09T10:20:16;25.10;99.90
7366;DHT22;3723;52.220;8.792;2022-07-09T10:22:44;25.40;99.90
7366;DHT22;3723;52.220;8.792;2022-07-09T10:25:13;25.50;99.90
7366;DHT22;3723;52.220;8.792;2022-07-09T10:27:49;25.80;99.90
7366;DHT22;3723;52.220;8.792;2022-07-09T10:30:25;26.10;99.90
7366;DHT22;3723;52.220;8.792;2022-07-09T10:33:03;26.90;99.90
7366;DHT22;3723;52.220;8.792;2022-07-09T10:35:37;27.50;99.90
7366;DHT22;3723;52.220;8.792;2022-07-09T10:38:04;28.10;99.90
7366;DHT22;3723;52.220;8.792;2022-07-09T10:40:38;28.50;99.90
7366;DHT22;3723;52.220;8.792;2022-07-09T10:43:05;28.40;99.90
7366;DHT22;3723;52.220;8.792;2022-07-09T10:45:40;28.50;99.90
7366;DHT22;3723;52.220;8.792;2022-07-09T10:48:09;29.60;99.90
7366;DHT22;3723;52.220;8.792;2022-07-09T10:50:38;30.50;99.90
7366;DHT22;3723;52.220;8.792;2022-07-09T10:53:06;30.40;99.90
7366;DHT22;3723;52.220;8.792;2022-07-09T10:55:33;29.80;99.90
7366;DHT22;3723;52.220;8.792;2022-07-09T10:58:01;29.30;99.90
7366;DHT22;3723;52.220;8.792;2022-07-09T11:00:33;28.60;99.90
7366;DHT22;3723;52.220;8.792;2022-07-09T11:03:03;27.60;99.90
7366;DHT22;3723;52.220;8.792;2022-07-09T11:05:31;26.80;99.90
7366;DHT22;3723;52.220;8.792;2022-07-09T11:08:01;26.80;99.90
7366;DHT22;3723;52.220;8.792;2022-07-09T11:10:29;27.20;99.90
7366;DHT22;3723;52.220;8.792;2022-07-09T11:12:56;27.00;99.90
7366;DHT22;3723;52.220;8.792;2022-07-09T11:15:24;27.40;99.90
7366;DHT22;3723;52.220;8.792;2022-07-09T11:18:02;27.90;99.90
7366;DHT22;3723;52.220;8.792;2022-07-09T11:20:31;28.40;99.90
7366;DHT22;3723;52.220;8.792;2022-07-09T11:22:58;28.30;99.90
7366;DHT22;3723;52.220;8.792;2022-07-09T11:25:27;27.80;99.90
7366;DHT22;3723;52.220;8.792;2022-07-09T11:27:54;27.50;99.90
7366;DHT22;3723;52.220;8.792;2022-07-09T11:30:21;27.60;99.90
7366;DHT22;3723;52.220;8.792;2022-07-09T11:32:48;27.40;99.90
7366;DHT22;3723;52.220;8.792;2022-07-09T11:35:26;27.70;99.90
7366;DHT22;3723;52.220;8.792;2022-07-09T11:37:54;27.90;99.90
7366;DHT22;3723;52.220;8.792;2022-07-09T11:40:21;28.40;99.90
7366;DHT22;3723;52.220;8.792;2022-07-09T11:42:48;28.50;99.90
7366;DHT22;3723;52.220;8.792;2022-07-09T11:45:20;29.20;99.90
7366;DHT22;3723;52.220;8.792;2022-07-09T11:47:47;29.30;99.90
7366;DHT22;3723;52.220;8.792;2022-07-09T11:50:16;28.70;99.90
7366;DHT22;3723;52.220;8.792;2022-07-09T11:52:47;28.00;99.90
7366;DHT22;3723;52.220;8.792;2022-07-09T11:55:27;27.30;99.90
7366;DHT22;3723;52.220;8.792;2022-07-09T11:57:55;26.70;99.90
7366;DHT22;3723;52.220;8.792;2022-07-09T12:00:24;26.20;98.70
7366;DHT22;3723;52.220;8.792;2022-07-09T12:02:54;25.90;98.50
7366;DHT22;3723;52.220;8.792;2022-07-09T12:05:27;26.30;99.90
7366;DHT22;3723;52.220;8.792;2022-07-09T12:07:57;26.10;98.40
7366;DHT22;3723;52.220;8.792;2022-07-09T12:10:31;25.50;96.50
7366;DHT22;3723;52.220;8.792;2022-07-09T12:13:00;25.20;96.10
7366;DHT22;3723;52.220;8.792;2022-07-09T12:15:27;25.00;96.10
7366;DHT22;3723;52.220;8.792;2022-07-09T12:17:55;25.30;97.30
7366;DHT22;3723;52.220;8.792;2022-07-09T12:20:23;25.90;98.80
7366;DHT22;3723;52.220;8.792;2022-07-09T12:22:51;27.00;99.90
7366;DHT22;3723;52.220;8.792;2022-07-09T12:25:20;28.30;99.90
7366;DHT22;3723;52.220;8.792;2022-07-09T12:27:47;29.30;99.90
7366;DHT22;3723;52.220;8.792;2022-07-09T12:30:26;29.90;99.90
7366;DHT22;3723;52.220;8.792;2022-07-09T12:32:55;30.30;99.90
7366;DHT22;3723;52.220;8.792;2022-07-09T12:35:32;30.40;99.90
7366;DHT22;3723;52.220;8.792;2022-07-09T12:38:07;30.60;99.90
7366;DHT22;3723;52.220;8.792;2022-07-09T12:43:02;31.20;99.90
7366;DHT22;3723;52.220;8.792;2022-07-09T12:45:29;31.90;99.90
7366;DHT22;3723;52.220;8.792;2022-07-09T12:47:59;32.90;99.90
7366;DHT22;3723;52.220;8.792;2022-07-09T12:50:26;33.20;99.90
7366;DHT22;3723;52.220;8.792;2022-07-09T12:52:53;32.40;99.90
7366;DHT22;3723;52.220;8.792;2022-07-09T12:55:20;31.80;99.90
7366;DHT22;3723;52.220;8.792;2022-07-09T12:57:48;30.80;99.90
7366;DHT22;3723;52.220;8.792;2022-07-09T13:00:15;29.50;97.40
7366;DHT22;3723;52.220;8.792;2022-07-09T13:02:42;28.20;93.10
7366;DHT22;3723;52.220;8.792;2022-07-09T13:05:12;27.90;92.60
7366;DHT22;3723;52.220;8.792;2022-07-09T13:07:40;27.60;91.00
7366;DHT22;3723;52.220;8.792;2022-07-09T13:10:07;27.50;91.20
7366;DHT22;3723;52.220;8.792;2022-07-09T13:12:34;27.00;87.50
7366;DHT22;3723;52.220;8.792;2022-07-09T13:15:03;26.30;82.70
7366;DHT22;3723;52.220;8.792;2022-07-09T13:17:30;26.10;84.00
7366;DHT22;3723;52.220;8.792;2022-07-09T13:19:57;26.50;85.60
7366;DHT22;3723;52.220;8.792;2022-07-09T13:22:24;26.30;84.70
7366;DHT22;3723;52.220;8.792;2022-07-09T13:24:51;26.10;83.00
7366;DHT22;3723;52.220;8.792;2022-07-09T13:27:18;25.90;83.60
7366;DHT22;3723;52.220;8.792;2022-07-09T13:29:47;25.80;83.20
7366;DHT22;3723;52.220;8.792;2022-07-09T13:32:15;25.70;83.20
7366;DHT22;3723;52.220;8.792;2022-07-09T13:34:42;25.60;80.60
7366;DHT22;3723;52.220;8.792;2022-07-09T13:37:11;25.50;82.40
7366;DHT22;3723;52.220;8.792;2022-07-09T13:39:38;26.30;88.80
7366;DHT22;3723;52.220;8.792;2022-07-09T13:42:05;26.50;88.30
7366;DHT22;3723;52.220;8.792;2022-07-09T13:44:32;26.30;88.00
7366;DHT22;3723;52.220;8.792;2022-07-09T13:47:01;25.70;84.50
7366;DHT22;3723;52.220;8.792;2022-07-09T13:49:30;25.20;81.80
7366;DHT22;3723;52.220;8.792;2022-07-09T13:51:56;24.80;80.00
7366;DHT22;3723;52.220;8.792;2022-07-09T13:54:23;24.70;79.30
7366;DHT22;3723;52.220;8.792;2022-07-09T13:56:50;24.80;82.50
7366;DHT22;3723;52.220;8.792;2022-07-09T13:59:17;25.10;87.20
7366;DHT22;3723;52.220;8.792;2022-07-09T14:01:44;26.10;91.10
7366;DHT22;3723;52.220;8.792;2022-07-09T14:04:11;26.50;92.20
7366;DHT22;3723;52.220;8.792;2022-07-09T14:06:39;26.40;92.00
7366;DHT22;3723;52.220;8.792;2022-07-09T14:09:06;26.40;91.90
7366;DHT22;3723;52.220;8.792;2022-07-09T14:11:33;27.10;94.60
7366;DHT22;3723;52.220;8.792;2022-07-09T14:13:59;28.00;96.40
7366;DHT22;3723;52.220;8.792;2022-07-09T14:16:26;28.20;96.60
7366;DHT22;3723;52.220;8.792;2022-07-09T14:18:53;28.60;97.10
7366;DHT22;3723;52.220;8.792;2022-07-09T14:21:21;29.10;98.10
7366;DHT22;3723;52.220;8.792;2022-07-09T14:23:49;29.80;99.90
7366;DHT22;3723;52.220;8.792;2022-07-09T14:26:16;30.40;99.90
7366;DHT22;3723;52.220;8.792;2022-07-09T14:28:43;30.90;99.90
7366;DHT22;3723;52.220;8.792;2022-07-09T14:31:10;30.40;99.80
7366;DHT22;3723;52.220;8.792;2022-07-09T14:33:37;29.60;97.10
7366;DHT22;3723;52.220;8.792;2022-07-09T14:36:04;29.00;94.50
7366;DHT22;3723;52.220;8.792;2022-07-09T14:38:31;28.90;93.60
7366;DHT22;3723;52.220;8.792;2022-07-09T14:40:59;29.20;94.20
7366;DHT22;3723;52.220;8.792;2022-07-09T14:43:26;29.60;95.10
7366;DHT22;3723;52.220;8.792;2022-07-09T14:45:53;30.10;96.20
7366;DHT22;3723;52.220;8.792;2022-07-09T14:48:20;29.80;95.50
7366;DHT22;3723;52.220;8.792;2022-07-09T14:50:47;29.00;92.80
7366;DHT22;3723;52.220;8.792;2022-07-09T14:53:14;27.50;87.20
7366;DHT22;3723;52.220;8.792;2022-07-09T14:55:41;26.50;81.20
7366;DHT22;3723;52.220;8.792;2022-07-09T14:58:09;25.70;78.80
7366;DHT22;3723;52.220;8.792;2022-07-09T15:00:35;25.30;77.80
7366;DHT22;3723;52.220;8.792;2022-07-09T15:03:02;25.60;83.00
7366;DHT22;3723;52.220;8.792;2022-07-09T15:05:29;26.20;85.10
7366;DHT22;3723;52.220;8.792;2022-07-09T15:07:56;26.60;88.20
7366;DHT22;3723;52.220;8.792;2022-07-09T15:10:23;26.40;89.40
7366;DHT22;3723;52.220;8.792;2022-07-09T15:12:51;26.10;87.10
7366;DHT22;3723;52.220;8.792;2022-07-09T15:15:19;25.70;85.10
7366;DHT22;3723;52.220;8.792;2022-07-09T15:17:46;25.30;83.80
7366;DHT22;3723;52.220;8.792;2022-07-09T15:20:13;24.90;83.70
7366;DHT22;3723;52.220;8.792;2022-07-09T15:22:40;24.80;84.10
7366;DHT22;3723;52.220;8.792;2022-07-09T15:25:07;25.40;87.00
7366;DHT22;3723;52.220;8.792;2022-07-09T15:27:36;25.60;89.00
7366;DHT22;3723;52.220;8.792;2022-07-09T15:30:04;25.30;87.80
7366;DHT22;3723;52.220;8.792;2022-07-09T15:32:33;24.60;83.00
7366;DHT22;3723;52.220;8.792;2022-07-09T15:35:00;23.90;81.90
7366;DHT22;3723;52.220;8.792;2022-07-09T15:37:27;23.60;81.70
7366;DHT22;3723;52.220;8.792;2022-07-09T15:39:54;23.80;83.10
7366;DHT22;3723;52.220;8.792;2022-07-09T15:42:20;23.90;84.90
7366;DHT22;3723;52.220;8.792;2022-07-09T15:44:47;23.90;85.30
7366;DHT22;3723;52.220;8.792;2022-07-09T15:47:14;24.10;86.50
7366;DHT22;3723;52.220;8.792;2022-07-09T15:49:43;24.70;89.70
7366;DHT22;3723;52.220;8.792;2022-07-09T15:52:10;25.00;90.70
7366;DHT22;3723;52.220;8.792;2022-07-09T15:54:36;25.20;90.90
7366;DHT22;3723;52.220;8.792;2022-07-09T15:57:08;25.50;91.70
7366;DHT22;3723;52.220;8.792;2022-07-09T15:59:35;25.60;92.20
7366;DHT22;3723;52.220;8.792;2022-07-09T16:02:02;25.70;92.30
7366;DHT22;3723;52.220;8.792;2022-07-09T16:04:30;25.60;92.70
7366;DHT22;3723;52.220;8.792;2022-07-09T16:06:58;25.80;93.30